Roswell, NM

12:57 AM MDT on October 22, 2014 (GMT -0600)
West Roswell Enchanted Hills | Change Station
CLOSE
Current Station
Personal Weather Station
Location: Roswell, NM
Elevation: 3619 ft
Nearby Weather Stations

Elev 3619 ft 33.40 °N, 104.57 °W | Updated 53 minutes ago

Overcast
Overcast
59.1 °F
Feels Like 59.1 °F
N
0.0
Wind Variable Wind from SE

Today
High -- | Low -- °F
--% Chance of Precip.
Yesterday
High -- | Low -- °F
Precip. -- in
7:08 AM 6:16 PM
Waning Crescent, 3% visible
Pressure 29.94 in
Visibility 5.0 miles
Clouds Mostly Cloudy 600 ft
Overcast 1100 ft
Dew Point 58 °F
Humidity 95%
Rainfall 0.00 in
Snow Depth Not available.
UV 0 out of 12
Pollen 4.60 out of 12
Air Quality Not available.
Flu Activity Sporadic
METAR KROW 220651Z AUTO 20006KT 5SM BR BKN006 OVC011 17/16 A3007 RMK AO2 CIG 005V009 SLP137 T01670156 402060139

More Conditions Fewer Conditions

Pressure 29.94 in
Visibility 5.0 miles
Clouds Mostly Cloudy 600 ft
Overcast 1100 ft
Dew Point 58 °F
Humidity 95%
Rainfall 0.00 in
Snow Depth Not available.
UV 0 out of 12
Pollen 4.60 out of 12
Air Quality Not available.
Flu Activity Sporadic
METAR KROW 220651Z AUTO 20006KT 5SM BR BKN006 OVC011 17/16 A3007 RMK AO2 CIG 005V009 SLP137 T01670156 402060139

More Conditions Fewer Conditions

Nowcast | as of 11:40 PM MDT on October 21, 2014

Through 130 am...scattered showers and an isolated thunderstorm or two will continue to track northeastward across the east central and southeast plains. Brief moderate rain may impact Highway 70 between Roswell and Elkins...otherwise light rainfall is expected. Some areas that may see some of the showers include Trujillo... Colonias...Yeso...Elida and Milnesand. Areas of low clouds and patchy fog will continue to develop as well. Visibilities may be as low as one half mile along Interstate 40 near Clines Corners. Travelers should exercise caution.

×

10-Day Weather Forecast

Almanac

Astronomy

Oct. 22, 2014 Rise Set
Actual Time 7:08 AM MDT 6:16 PM MDT
Civil Twilight 6:43 AM MDT 6:41 PM MDT
Nautical Twilight 6:14 AM MDT 7:10 PM MDT
Astronomical Twilight 5:45 AM MDT 7:39 PM MDT
Moon 5:55 AM MDT 5:42 PM MDT
Length of Visible Light 11h 58m
Length of Day
11h 08m
Tomorrow will be 1m 55s shorter.
Waning Crescent, 3% of the Moon is Illuminated
Today
Waning Crescent
Oct 23
New
Oct 30
First Quarter
Nov 6
Full
Nov 14
Last Quarter

Today's Extremes

State Highs State Lows

Community

WunderPhotos

Upload Photos

1,763,884 photos uploaded!

Nearby

Snow Depth

Station Depth Elevation
Sierra Blanca 1 in 10280 ft
Wesner Springs 3 in 11120 ft
Santa Fe 0 in 11445 ft
Elk Cabin 1 in 8210 ft
Lookout Mountain 0 in 8500 ft

Earthquake Activity

City Distance Mag. Time & Date
No recent earthquake activity has been reported nearby.
Minimum magnitude displayed is 2.5.

Coastal Water Temperatures

Place Temperature
No Stations Reporting

Nearby Weather Stations